Time;durP1;ratioP1;P1;durP2;ratioP2;P2;SDS_P1;SDS_P2;PMS_P1;PMS_P2;Temp;Humidity;BMP_temperature;BMP_pressure;BME280_temperature;BME280_humidity;BME280_pressure;Samples;Min_cycle;Max_cycle;Signal;HPM_P1;HPM_P2
2022/01/03 00:01:43;;;;;;;4.43;2.60;;;8.60;52.50;;;;;;5053636;28;20071;-84
2022/01/03 00:04:11;;;;;;;3.85;2.83;;;8.60;52.40;;;;;;5069808;28;20028;-84
2022/01/03 00:06:41;;;;;;;2.50;2.20;;;8.60;52.60;;;;;;5070568;28;20032;-84
2022/01/03 00:09:08;;;;;;;3.20;2.28;;;8.60;52.50;;;;;;5071839;28;20037;-83
2022/01/03 00:11:35;;;;;;;3.63;2.75;;;8.60;52.50;;;;;;5073857;28;20407;-84
2022/01/03 00:14:02;;;;;;;2.85;2.50;;;8.60;52.60;;;;;;5071085;28;20033;-83
2022/01/03 00:16:30;;;;;;;4.70;2.97;;;8.60;52.50;;;;;;5057267;28;21587;-82
2022/01/03 00:18:56;;;;;;;3.58;2.50;;;8.60;52.30;;;;;;5057109;28;20021;-83
2022/01/03 00:21:29;;;;;;;2.55;2.35;;;8.70;52.40;;;;;;5056139;28;20044;-84
2022/01/03 00:24:10;;;;;;;3.28;2.97;;;8.70;52.40;;;;;;5075832;28;20041;-83
2022/01/03 00:26:38;;;;;;;3.40;2.58;;;8.70;52.50;;;;;;5088823;28;20048;-84
2022/01/03 00:29:16;;;;;;;5.57;2.58;;;8.60;52.60;;;;;;5086766;28;20050;-84
2022/01/03 00:31:43;;;;;;;4.53;2.60;;;8.60;52.60;;;;;;5072521;28;20414;-81
2022/01/03 00:34:14;;;;;;;3.05;2.58;;;8.60;52.50;;;;;;5058577;28;21514;-84
2022/01/03 00:36:43;;;;;;;3.50;2.88;;;8.60;52.40;;;;;;5072184;28;20064;-82
2022/01/03 00:39:09;;;;;;;3.38;2.60;;;8.60;52.30;;;;;;5072283;28;20178;-82
2022/01/03 00:41:41;;;;;;;4.10;2.60;;;8.70;52.40;;;;;;5071399;28;20060;-81
2022/01/03 00:44:08;;;;;;;3.05;2.70;;;8.60;52.40;;;;;;5066517;28;20462;-81
2022/01/03 00:46:34;;;;;;;4.15;2.75;;;8.60;52.50;;;;;;5067927;28;20526;-82
2022/01/03 00:49:01;;;;;;;4.57;2.78;;;8.70;52.50;;;;;;5067764;28;20040;-81
2022/01/03 00:51:27;;;;;;;6.15;2.92;;;8.60;52.40;;;;;;5052529;28;20054;-82
2022/01/03 00:53:53;;;;;;;4.43;3.15;;;8.60;52.50;;;;;;5067358;28;20455;-82
2022/01/03 00:56:27;;;;;;;5.70;2.97;;;8.60;52.30;;;;;;5065108;28;20112;-84
2022/01/03 00:58:56;;;;;;;3.85;2.88;;;8.70;52.40;;;;;;5064883;28;20495;-84
2022/01/03 01:01:23;;;;;;;3.40;3.03;;;8.60;52.30;;;;;;5063433;28;20029;-84
2022/01/03 01:03:53;;;;;;;3.88;2.92;;;8.60;52.50;;;;;;5034095;28;20032;-83
2022/01/03 01:06:22;;;;;;;3.63;2.78;;;8.60;52.10;;;;;;5067830;28;20056;-82
2022/01/03 01:08:54;;;;;;;4.50;2.92;;;8.60;52.30;;;;;;5067550;28;20032;-83
2022/01/03 01:11:27;;;;;;;4.50;2.65;;;8.60;52.10;;;;;;5068409;28;20029;-83
2022/01/03 01:13:54;;;;;;;4.10;2.80;;;8.60;52.40;;;;;;5050435;28;20017;-80
2022/01/03 01:16:23;;;;;;;3.55;2.53;;;8.60;52.50;;;;;;5051375;28;20449;-83
2022/01/03 01:18:52;;;;;;;4.00;2.55;;;8.60;52.40;;;;;;5050206;28;20032;-83
2022/01/03 01:21:19;;;;;;;2.72;2.30;;;8.60;52.50;;;;;;5048146;28;20040;-82
2022/01/03 01:23:50;;;;;;;2.78;2.17;;;8.60;52.40;;;;;;5054794;28;20518;-82
2022/01/03 01:29:08;;;;;;;2.42;2.22;;;8.60;52.10;;;;;;5084567;28;20063;-82
2022/01/03 01:31:39;;;;;;;4.15;2.17;;;8.60;52.00;;;;;;5067926;28;20040;-81
2022/01/03 01:34:06;;;;;;;2.80;2.42;;;8.60;51.90;;;;;;5064222;28;20039;-82
2022/01/03 01:36:33;;;;;;;3.88;2.63;;;8.60;52.10;;;;;;5047208;28;20039;-82
2022/01/03 01:39:10;;;;;;;2.75;2.20;;;8.60;52.20;;;;;;5066042;28;20171;-83
2022/01/03 01:41:44;;;;;;;2.85;2.22;;;8.60;52.10;;;;;;5066743;28;20507;-83
2022/01/03 01:44:12;;;;;;;4.20;2.63;;;8.60;52.30;;;;;;5065864;28;20070;-84
2022/01/03 01:46:46;;;;;;;4.13;2.00;;;8.60;52.30;;;;;;5064786;28;20033;-84
2022/01/03 01:49:20;;;;;;;2.25;2.00;;;8.60;52.20;;;;;;5051047;28;20040;-84
2022/01/03 01:52:01;;;;;;;4.43;2.40;;;8.60;52.30;;;;;;5051835;28;21484;-82
2022/01/03 01:54:37;;;;;;;2.42;1.90;;;8.60;52.40;;;;;;5048387;28;20077;-83
2022/01/03 01:57:07;;;;;;;2.65;2.17;;;8.60;52.50;;;;;;5064621;28;20032;-84
2022/01/03 02:00:07;;;;;;;3.25;1.90;;;8.60;52.40;;;;;;5064604;28;20032;-82
2022/01/03 02:03:05;;;;;;;3.83;2.20;;;8.50;52.40;;;;;;5052889;28;20044;-84
2022/01/03 02:05:31;;;;;;;3.92;2.17;;;8.60;52.30;;;;;;5065312;28;20032;-84
2022/01/03 02:08:24;;;;;;;2.75;2.38;;;8.60;52.40;;;;;;5063065;28;20036;-84
2022/01/03 02:10:50;;;;;;;3.75;2.55;;;8.60;52.30;;;;;;5048841;28;20136;-84
2022/01/03 02:13:22;;;;;;;3.90;2.35;;;8.60;52.30;;;;;;5046968;28;20122;-85
2022/01/03 02:15:58;;;;;;;3.50;2.40;;;8.60;52.30;;;;;;5045553;28;20039;-85
2022/01/03 02:18:25;;;;;;;3.60;2.70;;;8.60;52.20;;;;;;5065697;28;20530;-82
2022/01/03 02:20:52;;;;;;;3.92;2.38;;;8.50;52.40;;;;;;5045347;28;20035;-82
2022/01/03 02:23:19;;;;;;;3.13;2.20;;;8.50;52.40;;;;;;5063807;28;20090;-82
2022/01/03 02:25:45;;;;;;;5.70;2.38;;;8.50;52.30;;;;;;5039533;28;20079;-82
2022/01/03 02:28:11;;;;;;;5.88;2.38;;;8.60;52.40;;;;;;5068372;28;20517;-82
2022/01/03 02:30:38;;;;;;;3.42;2.20;;;8.50;52.40;;;;;;5051849;28;20119;-81
2022/01/03 02:33:05;;;;;;;4.55;2.13;;;8.50;52.40;;;;;;5078739;28;20116;-82
2022/01/03 02:35:40;;;;;;;2.53;2.22;;;8.50;52.30;;;;;;5056278;28;20028;-82
2022/01/03 02:38:09;;;;;;;5.00;2.95;;;8.50;52.40;;;;;;5065751;28;20033;-83
2022/01/03 02:40:36;;;;;;;2.83;2.47;;;8.50;52.10;;;;;;5049825;28;20119;-82
2022/01/03 02:43:02;;;;;;;3.17;2.00;;;8.50;52.20;;;;;;5048307;28;20094;-83
2022/01/03 02:45:29;;;;;;;2.72;2.45;;;8.50;52.10;;;;;;5062727;28;20040;-83
2022/01/03 02:48:00;;;;;;;2.50;2.30;;;8.50;52.20;;;;;;5064033;28;20032;-83
2022/01/03 02:50:28;;;;;;;3.38;2.15;;;8.50;52.30;;;;;;5048495;28;20028;-83
2022/01/03 02:52:55;;;;;;;3.53;2.20;;;8.50;52.40;;;;;;5064055;28;20028;-83
2022/01/03 02:55:23;;;;;;;2.45;1.98;;;8.50;52.40;;;;;;5064479;28;20039;-83
2022/01/03 02:57:52;;;;;;;2.92;1.98;;;8.50;52.50;;;;;;5062581;28;20036;-83
2022/01/03 03:00:25;;;;;;;3.63;2.40;;;8.50;53.10;;;;;;5030467;28;20032;-83
2022/01/03 03:02:51;;;;;;;3.83;2.40;;;8.50;52.50;;;;;;5063107;28;20037;-83
2022/01/03 03:05:19;;;;;;;5.18;2.60;;;8.50;52.40;;;;;;5046216;28;21403;-82
2022/01/03 03:07:47;;;;;;;3.40;2.28;;;8.50;52.50;;;;;;5062118;28;20032;-82
2022/01/03 03:10:20;;;;;;;3.22;2.10;;;8.50;52.40;;;;;;5031597;28;20033;-82
2022/01/03 03:12:47;;;;;;;4.45;2.53;;;8.50;52.40;;;;;;5048341;28;20402;-83
2022/01/03 03:15:14;;;;;;;3.70;2.30;;;8.50;52.40;;;;;;5061684;28;20060;-85
2022/01/03 03:17:42;;;;;;;2.42;2.22;;;8.50;52.50;;;;;;5048193;28;20035;-83
2022/01/03 03:20:19;;;;;;;4.57;2.70;;;8.50;52.40;;;;;;5065137;28;20488;-82
2022/01/03 03:22:49;;;;;;;3.95;2.88;;;8.50;52.40;;;;;;5063941;28;20036;-81
2022/01/03 03:25:26;;;;;;;2.80;2.50;;;8.50;52.30;;;;;;5051057;28;20033;-82
2022/01/03 03:27:57;;;;;;;4.18;2.70;;;8.50;52.20;;;;;;5064988;28;20054;-83
2022/01/03 03:30:37;;;;;;;4.00;2.67;;;8.50;52.30;;;;;;5065297;28;20028;-82
2022/01/03 03:33:31;;;;;;;2.97;2.70;;;8.40;52.30;;;;;;5078915;28;20155;-82
2022/01/03 03:35:59;;;;;;;;;;;8.50;52.50;;;;;;5061896;28;20086;-81
2022/01/03 03:38:27;;;;;;;3.47;2.60;;;8.50;52.60;;;;;;5059203;28;19920;-82
2022/01/03 03:40:57;;;;;;;3.60;2.20;;;8.50;52.50;;;;;;5049042;28;20032;-83
2022/01/03 03:43:25;;;;;;;4.60;2.60;;;8.50;52.40;;;;;;5044388;28;20056;-83
2022/01/03 03:45:51;;;;;;;3.78;2.55;;;8.40;52.20;;;;;;5065097;28;20036;-83
2022/01/03 03:48:19;;;;;;;5.38;2.55;;;8.50;52.50;;;;;;5047698;28;20437;-82
2022/01/03 03:50:46;;;;;;;3.35;2.78;;;8.50;52.30;;;;;;5048569;28;20032;-82
2022/01/03 03:53:14;;;;;;;3.33;2.90;;;8.40;52.60;;;;;;5061550;28;20033;-83
2022/01/03 03:55:41;;;;;;;3.90;2.67;;;8.40;52.40;;;;;;5032856;28;20040;-83
2022/01/03 03:58:07;;;;;;;4.85;2.70;;;8.40;52.40;;;;;;5032504;28;20132;-83
2022/01/03 04:00:34;;;;;;;4.85;3.25;;;8.40;52.40;;;;;;5045961;28;20079;-83
2022/01/03 04:03:03;;;;;;;2.80;2.60;;;8.40;52.10;;;;;;5046702;28;20036;-83
2022/01/03 04:05:31;;;;;;;3.90;2.90;;;8.40;52.40;;;;;;5047664;28;20028;-82
2022/01/03 04:07:57;;;;;;;3.78;3.15;;;8.40;52.30;;;;;;5064220;28;20029;-82
2022/01/03 04:10:23;;;;;;;4.38;3.30;;;8.40;52.20;;;;;;5047156;28;20037;-83
2022/01/03 04:12:50;;;;;;;3.35;2.90;;;8.40;52.20;;;;;;5064132;28;20040;-83
2022/01/03 04:15:18;;;;;;;4.72;2.60;;;8.40;52.20;;;;;;5045803;28;20032;-83
2022/01/03 04:17:45;;;;;;;4.78;3.00;;;8.40;52.40;;;;;;5023485;28;20029;-83
2022/01/03 04:20:17;;;;;;;5.93;3.58;;;8.40;52.30;;;;;;5053128;28;20040;-84
2022/01/03 04:22:44;;;;;;;5.03;3.20;;;8.40;52.30;;;;;;5067825;28;20529;-84
2022/01/03 04:25:11;;;;;;;5.15;3.58;;;8.40;52.30;;;;;;5035209;28;20037;-82
2022/01/03 04:27:38;;;;;;;4.90;3.63;;;8.40;52.50;;;;;;5067501;28;20449;-83
2022/01/03 04:30:05;;;;;;;5.22;4.03;;;8.40;52.40;;;;;;5051909;28;20345;-83
2022/01/03 04:32:31;;;;;;;4.18;3.10;;;8.40;52.60;;;;;;5033687;28;20071;-83
2022/01/03 04:34:57;;;;;;;5.57;3.40;;;8.40;52.50;;;;;;5066956;28;20056;-83
2022/01/03 04:37:23;;;;;;;6.97;3.80;;;8.40;52.40;;;;;;5086512;28;20050;-83
2022/01/03 04:39:50;;;;;;;6.85;3.53;;;8.40;52.30;;;;;;5084084;28;20593;-82
2022/01/03 04:42:16;;;;;;;5.60;3.25;;;8.40;52.20;;;;;;5082272;28;20089;-82
2022/01/03 04:44:43;;;;;;;3.85;3.25;;;8.40;52.20;;;;;;5065679;28;20032;-82
2022/01/03 04:47:10;;;;;;;4.90;3.58;;;8.40;52.10;;;;;;5051269;28;20044;-83
2022/01/03 04:49:37;;;;;;;7.10;3.70;;;8.40;52.30;;;;;;5033270;28;20526;-83
2022/01/03 04:52:03;;;;;;;6.70;4.07;;;8.40;52.10;;;;;;5066044;28;20029;-84
2022/01/03 04:54:31;;;;;;;8.05;3.85;;;8.40;52.20;;;;;;5050431;28;20032;-84
2022/01/03 04:56:59;;;;;;;5.60;3.75;;;8.40;52.10;;;;;;5052934;28;20040;-83
2022/01/03 04:59:26;;;;;;;6.43;4.00;;;8.40;51.90;;;;;;5051257;28;20029;-83
2022/01/03 05:01:53;;;;;;;6.40;4.40;;;8.40;51.80;;;;;;5066672;28;20036;-83
2022/01/03 05:04:19;;;;;;;9.82;4.75;;;8.30;52.00;;;;;;5068571;28;20068;-84
2022/01/03 05:06:45;;;;;;;6.95;4.78;;;8.40;51.80;;;;;;5052635;28;20036;-85
2022/01/03 05:09:11;;;;;;;7.75;5.18;;;8.30;52.00;;;;;;5066450;28;20460;-84
2022/01/03 05:11:37;;;;;;;9.65;5.82;;;8.30;52.00;;;;;;5065849;28;20052;-83
2022/01/03 05:14:04;;;;;;;7.90;5.70;;;8.30;52.00;;;;;;5065794;28;20028;-83
2022/01/03 05:16:30;;;;;;;8.57;5.15;;;8.30;52.10;;;;;;5050578;28;21002;-83
2022/01/03 05:18:56;;;;;;;8.13;5.20;;;8.30;51.90;;;;;;5067603;28;20402;-83
2022/01/03 05:21:22;;;;;;;9.85;5.25;;;8.30;51.70;;;;;;5065251;28;20115;-83
2022/01/03 05:23:50;;;;;;;6.15;4.60;;;8.30;51.80;;;;;;5066199;28;20029;-83
2022/01/03 05:26:16;;;;;;;7.13;4.45;;;8.30;51.80;;;;;;5051947;28;20028;-83
2022/01/03 05:28:45;;;;;;;8.32;4.97;;;8.30;51.80;;;;;;5051233;28;20127;-82
2022/01/03 05:31:12;;;;;;;7.05;4.30;;;8.30;52.00;;;;;;5063939;28;20036;-82
2022/01/03 05:33:39;;;;;;;6.47;4.60;;;8.30;51.90;;;;;;5065949;28;20494;-83
2022/01/03 05:36:06;;;;;;;7.30;4.97;;;8.30;51.80;;;;;;5049918;28;20064;-82
2022/01/03 05:38:32;;;;;;;7.20;4.65;;;8.30;51.90;;;;;;5064824;28;20449;-81
2022/01/03 05:41:00;;;;;;;6.55;4.70;;;8.30;51.70;;;;;;5057716;28;20063;-84
2022/01/03 05:43:26;;;;;;;7.25;5.18;;;8.30;51.60;;;;;;5076161;28;20024;-83
2022/01/03 05:45:52;;;;;;;6.68;4.57;;;8.30;51.70;;;;;;5077905;28;20040;-84
2022/01/03 05:48:18;;;;;;;5.88;4.28;;;8.30;51.60;;;;;;5053147;28;20120;-84
2022/01/03 05:50:45;;;;;;;9.77;5.35;;;8.30;51.50;;;;;;5035072;28;20036;-82
2022/01/03 05:53:11;;;;;;;9.27;5.63;;;8.30;51.50;;;;;;5064713;28;20115;-83
2022/01/03 05:55:38;;;;;;;7.82;4.97;;;8.30;51.50;;;;;;5062782;28;20127;-83
2022/01/03 05:58:04;;;;;;;8.95;5.57;;;8.20;51.60;;;;;;5065248;28;20031;-82
2022/01/03 06:00:33;;;;;;;8.10;5.60;;;8.30;51.90;;;;;;5064728;28;20060;-85
2022/01/03 06:02:59;;;;;;;8.23;5.65;;;8.30;51.60;;;;;;5065313;28;20029;-82
2022/01/03 06:08:04;;;;;;;9.68;5.57;;;8.20;51.50;;;;;;5064109;28;20028;-82
2022/01/03 06:10:40;;;;;;;6.80;5.03;;;8.30;51.50;;;;;;5049832;28;20028;-82
2022/01/03 06:13:09;;;;;;;7.72;4.75;;;8.30;51.40;;;;;;5050765;28;20024;-83
2022/01/03 06:15:39;;;;;;;7.20;5.55;;;8.30;51.50;;;;;;5066267;28;20060;-82
2022/01/03 06:18:12;;;;;;;8.00;5.50;;;8.20;51.50;;;;;;5065260;28;20070;-81
2022/01/03 06:20:44;;;;;;;7.25;4.90;;;8.20;51.50;;;;;;5065798;28;20032;-85
2022/01/03 06:23:12;;;;;;;8.00;4.75;;;8.20;51.50;;;;;;5049723;28;20064;-90
2022/01/03 06:25:38;;;;;;;8.32;4.75;;;8.20;51.40;;;;;;5049957;28;20127;-91
2022/01/03 06:28:07;;;;;;;6.43;4.60;;;8.20;51.70;;;;;;5034106;28;20068;-92
2022/01/03 06:30:39;;;;;;;6.97;4.22;;;8.20;52.00;;;;;;5050985;28;20491;-92
2022/01/03 06:33:06;;;;;;;6.45;4.05;;;8.20;52.20;;;;;;5051144;28;20048;-86
2022/01/03 06:35:32;;;;;;;7.90;4.22;;;8.20;52.30;;;;;;5033839;28;20043;-87
2022/01/03 06:37:59;;;;;;;6.32;3.75;;;8.30;52.50;;;;;;5048635;28;20560;-87
2022/01/03 06:40:26;;;;;;;6.80;4.03;;;8.30;52.40;;;;;;5033649;28;20495;-86
2022/01/03 06:42:53;;;;;;;5.05;3.60;;;8.30;52.60;;;;;;5033126;28;20585;-87
2022/01/03 06:45:21;;;;;;;4.70;3.50;;;8.30;52.60;;;;;;5061320;28;20032;-85
2022/01/03 06:47:50;;;;;;;5.15;3.25;;;8.30;52.70;;;;;;5067234;28;20052;-84
2022/01/03 06:50:18;;;;;;;4.32;3.45;;;8.30;52.80;;;;;;5051460;28;20128;-85
2022/01/03 06:52:44;;;;;;;5.53;3.58;;;8.30;52.80;;;;;;5042491;28;20115;-85
2022/01/03 06:55:10;;;;;;;7.35;4.38;;;8.30;52.70;;;;;;5033421;28;20038;-85
2022/01/03 06:57:38;;;;;;;5.20;3.75;;;8.30;52.90;;;;;;5053171;28;20521;-87
2022/01/03 07:00:05;;;;;;;5.18;4.00;;;8.30;52.70;;;;;;5064466;28;20131;-84
2022/01/03 07:02:31;;;;;;;5.40;3.80;;;8.40;52.70;;;;;;5049559;28;20033;-83
2022/01/03 07:04:57;;;;;;;4.68;3.78;;;8.30;52.80;;;;;;5061932;28;20028;-84
2022/01/03 07:07:23;;;;;;;5.88;3.80;;;8.40;53.00;;;;;;5062964;28;20124;-82
2022/01/03 07:09:49;;;;;;;6.45;3.72;;;8.40;53.00;;;;;;5034746;28;20148;-84
2022/01/03 07:12:16;;;;;;;7.35;3.90;;;8.40;53.00;;;;;;5066852;28;20071;-84
2022/01/03 07:19:57;;;;;;;7.38;3.75;;;8.40;53.50;;;;;;5066264;28;20066;-85
2022/01/03 07:22:24;;;;;;;6.20;3.80;;;8.40;52.90;;;;;;5052466;28;20040;-86
2022/01/03 07:24:51;;;;;;;5.72;4.10;;;8.40;53.00;;;;;;5050448;28;20067;-84
2022/01/03 07:27:18;;;;;;;5.35;3.90;;;8.40;53.00;;;;;;5068895;28;20119;-84
2022/01/03 07:29:46;;;;;;;6.78;4.38;;;8.50;53.10;;;;;;5067553;28;20130;-84
2022/01/03 07:32:12;;;;;;;6.65;3.60;;;8.50;53.20;;;;;;5051879;28;20057;-84
2022/01/03 07:34:38;;;;;;;6.28;4.40;;;8.50;53.10;;;;;;5066718;28;20522;-86
2022/01/03 07:37:04;;;;;;;6.40;4.18;;;8.50;53.00;;;;;;5050860;28;20025;-84
2022/01/03 07:39:31;;;;;;;6.55;4.18;;;8.50;53.00;;;;;;5045854;28;20033;-85
2022/01/03 07:41:58;;;;;;;7.20;4.30;;;8.50;52.90;;;;;;5046159;28;20052;-84
2022/01/03 07:44:25;;;;;;;5.03;4.00;;;8.50;52.90;;;;;;5069611;28;20225;-84
2022/01/03 07:46:51;;;;;;;4.65;3.70;;;8.50;52.80;;;;;;5053675;28;20503;-85
2022/01/03 07:49:17;;;;;;;5.35;3.50;;;8.60;52.70;;;;;;5073764;28;20060;-85
2022/01/03 07:51:43;;;;;;;7.45;3.90;;;8.50;52.70;;;;;;5073543;28;20037;-84
2022/01/03 07:54:09;;;;;;;10.20;3.85;;;8.50;52.60;;;;;;5078379;28;20025;-81
2022/01/03 07:56:35;;;;;;;4.75;4.03;;;8.50;52.50;;;;;;5068528;28;20040;-81
2022/01/03 07:59:01;;;;;;;6.28;3.95;;;8.60;52.50;;;;;;5069135;28;20052;-82
2022/01/03 08:01:27;;;;;;;5.82;3.75;;;8.60;52.60;;;;;;5067535;28;20033;-77
2022/01/03 08:03:53;;;;;;;7.07;3.40;;;8.60;52.80;;;;;;5067517;28;20029;-83
2022/01/03 08:06:20;;;;;;;6.63;3.33;;;8.60;52.80;;;;;;5067683;28;20029;-78
2022/01/03 08:08:46;;;;;;;6.32;3.55;;;8.60;53.00;;;;;;5068679;28;20508;-79
2022/01/03 08:11:12;;;;;;;6.85;3.70;;;8.60;53.30;;;;;;5067258;28;20036;-79
2022/01/03 08:13:38;;;;;;;6.43;4.10;;;8.60;53.40;;;;;;5066769;28;20039;-78
2022/01/03 08:16:04;;;;;;;6.72;4.03;;;8.60;53.60;;;;;;5067922;28;20465;-81
2022/01/03 08:18:32;;;;;;;5.15;3.50;;;8.70;54.30;;;;;;5067982;28;20029;-80
2022/01/03 08:20:58;;;;;;;7.38;3.90;;;8.70;54.60;;;;;;5067573;28;20043;-78
2022/01/03 08:23:24;;;;;;;7.30;3.88;;;8.70;54.70;;;;;;5068116;28;20051;-80
2022/01/03 08:25:50;;;;;;;5.72;3.88;;;8.70;54.50;;;;;;5067400;28;20086;-79
2022/01/03 08:28:16;;;;;;;4.80;4.18;;;8.80;54.30;;;;;;5066186;28;20032;-80
2022/01/03 08:30:42;;;;;;;4.63;4.00;;;8.80;54.20;;;;;;5067110;28;20047;-80
2022/01/03 08:33:08;;;;;;;6.05;4.10;;;8.80;54.10;;;;;;5067184;28;20048;-81
2022/01/03 08:35:34;;;;;;;9.35;4.25;;;8.80;54.00;;;;;;5068078;28;20040;-79
2022/01/03 08:38:01;;;;;;;5.93;4.05;;;8.80;53.90;;;;;;5065842;28;20495;-81
2022/01/03 08:40:27;;;;;;;5.05;3.60;;;8.80;54.00;;;;;;5066576;28;20032;-80
2022/01/03 08:42:53;;;;;;;5.63;3.75;;;8.80;53.80;;;;;;5067536;28;20028;-80
2022/01/03 08:45:19;;;;;;;7.97;4.10;;;8.80;53.70;;;;;;5065767;28;20140;-80
2022/01/03 08:47:47;;;;;;;5.57;3.80;;;8.80;53.50;;;;;;5066963;28;20433;-80
2022/01/03 08:50:15;;;;;;;7.18;4.22;;;8.80;53.40;;;;;;5067493;28;20033;-80
2022/01/03 08:52:41;;;;;;;5.47;3.47;;;8.80;53.40;;;;;;5068912;28;20040;-80
2022/01/03 08:55:08;;;;;;;5.38;4.07;;;8.80;53.20;;;;;;5066700;28;20052;-80
2022/01/03 08:57:33;;;;;;;4.57;3.50;;;8.80;53.20;;;;;;5067762;28;20037;-79
2022/01/03 08:59:59;;;;;;;5.53;3.40;;;8.80;53.10;;;;;;5067750;28;20565;-80
2022/01/03 09:02:25;;;;;;;4.40;3.50;;;8.80;53.00;;;;;;5066688;28;20942;-81
2022/01/03 09:04:51;;;;;;;5.65;3.50;;;8.80;53.10;;;;;;5065252;28;20032;-81
2022/01/03 09:07:17;;;;;;;5.22;3.78;;;8.80;53.00;;;;;;5064120;28;20497;-81
2022/01/03 09:09:43;;;;;;;7.95;3.63;;;8.80;53.00;;;;;;5065636;28;20028;-80
2022/01/03 09:12:09;;;;;;;5.50;3.63;;;8.80;52.90;;;;;;5065299;28;20031;-80
2022/01/03 09:14:36;;;;;;;5.95;3.60;;;8.80;52.80;;;;;;5049835;28;20036;-80
2022/01/03 09:17:03;;;;;;;4.93;3.75;;;8.80;52.80;;;;;;5065574;28;20028;-82
2022/01/03 09:19:29;;;;;;;4.63;3.58;;;8.80;53.00;;;;;;5066996;28;20498;-81
2022/01/03 09:22:06;;;;;;;6.18;3.42;;;8.80;53.00;;;;;;5066372;28;20124;-81
2022/01/03 09:24:44;;;;;;;4.53;3.70;;;8.80;52.90;;;;;;5066385;28;20145;-81
2022/01/03 09:29:57;;;;;;;4.85;3.30;;;8.80;53.00;;;;;;5066142;28;20051;-84
2022/01/03 09:32:23;;;;;;;6.80;3.70;;;8.80;53.10;;;;;;5064325;28;20041;-83
2022/01/03 09:34:49;;;;;;;6.13;3.70;;;8.80;53.10;;;;;;5065060;28;20035;-83
2022/01/03 09:37:20;;;;;;;5.57;3.83;;;8.80;53.10;;;;;;5066334;28;20032;-85
2022/01/03 09:39:50;;;;;;;13.65;4.45;;;8.80;53.00;;;;;;5063833;28;20145;-83
2022/01/03 09:42:23;;;;;;;7.55;3.83;;;8.90;53.00;;;;;;5065605;28;20580;-83
2022/01/03 09:44:50;;;;;;;8.27;4.07;;;8.90;52.90;;;;;;5065067;28;20036;-84
2022/01/03 09:47:18;;;;;;;5.35;3.72;;;8.90;52.80;;;;;;5065234;28;20083;-81
2022/01/03 09:49:45;;;;;;;7.57;4.40;;;8.90;52.70;;;;;;5064972;28;20028;-82
2022/01/03 09:52:14;;;;;;;7.80;4.10;;;8.90;52.70;;;;;;5064832;28;20024;-81
2022/01/03 09:54:41;;;;;;;6.97;3.75;;;8.90;52.60;;;;;;5063083;28;20495;-82
2022/01/03 09:57:08;;;;;;;7.07;4.25;;;8.90;52.50;;;;;;5068707;28;20685;-81
2022/01/03 09:59:37;;;;;;;8.23;4.47;;;8.90;52.50;;;;;;5066274;28;20384;-82
2022/01/03 10:02:06;;;;;;;7.72;4.63;;;8.90;52.50;;;;;;5064120;28;20093;-79
2022/01/03 10:04:32;;;;;;;5.90;4.70;;;8.90;52.40;;;;;;5064203;28;20028;-81
2022/01/03 10:06:59;;;;;;;8.85;5.00;;;8.90;52.20;;;;;;5065672;28;20051;-80
2022/01/03 10:09:26;;;;;;;9.10;5.28;;;8.90;52.10;;;;;;5064933;28;21067;-83
2022/01/03 10:11:52;;;;;;;9.18;5.03;;;8.90;52.00;;;;;;5045028;28;20082;-83
2022/01/03 10:14:18;;;;;;;7.55;5.10;;;8.90;51.90;;;;;;5047236;28;20029;-84
2022/01/03 10:16:46;;;;;;;8.45;5.05;;;8.90;51.90;;;;;;5061906;28;20039;-85
2022/01/03 10:19:14;;;;;;;8.07;5.00;;;8.90;51.80;;;;;;5048661;28;20028;-82
2022/01/03 10:21:48;;;;;;;8.98;5.53;;;8.90;51.70;;;;;;5047220;28;20033;-83
2022/01/03 10:24:17;;;;;;;10.50;5.35;;;8.90;51.70;;;;;;5063312;28;20173;-83
2022/01/03 10:26:53;;;;;;;7.82;5.13;;;8.90;51.70;;;;;;5063466;28;20111;-82
2022/01/03 10:29:20;;;;;;;8.40;5.13;;;8.90;51.90;;;;;;5064148;28;20056;-83
2022/01/03 10:31:49;;;;;;;8.68;4.78;;;8.90;52.00;;;;;;5046789;28;20044;-83
2022/01/03 10:34:17;;;;;;;9.45;5.00;;;8.90;51.90;;;;;;5064635;28;20166;-84
2022/01/03 10:36:46;;;;;;;8.75;4.63;;;8.90;52.20;;;;;;5064745;28;20028;-83
2022/01/03 10:39:13;;;;;;;10.40;4.78;;;8.90;52.30;;;;;;5063767;28;20032;-82
2022/01/03 10:41:39;;;;;;;7.70;4.80;;;8.90;52.40;;;;;;5064818;28;20037;-82
2022/01/03 10:44:06;;;;;;;9.10;4.85;;;8.90;52.50;;;;;;5063758;28;20069;-84
2022/01/03 10:46:35;;;;;;;9.10;4.82;;;8.90;52.40;;;;;;5063384;28;20029;-83
2022/01/03 10:49:08;;;;;;;7.15;4.78;;;8.90;52.60;;;;;;5064050;28;20029;-82
2022/01/03 10:51:34;;;;;;;7.68;4.53;;;8.90;52.40;;;;;;5063802;28;20032;-84
2022/01/03 10:54:00;;;;;;;5.75;4.70;;;8.90;52.30;;;;;;5065352;28;20081;-84
2022/01/03 10:56:29;;;;;;;7.15;4.65;;;8.90;52.30;;;;;;5063270;28;20040;-82
2022/01/03 10:59:00;;;;;;;6.03;3.97;;;8.90;52.10;;;;;;5067950;28;20028;-83
2022/01/03 11:01:28;;;;;;;7.10;4.88;;;8.90;52.10;;;;;;5064974;28;20677;-83
2022/01/03 11:03:57;;;;;;;7.93;4.63;;;8.90;52.00;;;;;;5065079;28;20067;-84
2022/01/03 11:06:35;;;;;;;7.15;4.47;;;8.90;51.90;;;;;;5047534;28;20411;-83
2022/01/03 11:11:49;;;;;;;5.72;4.72;;;8.90;51.80;;;;;;5064214;28;20277;-82
2022/01/03 11:14:39;;;;;;;7.25;4.90;;;8.90;51.70;;;;;;5064525;28;20041;-81
2022/01/03 11:17:25;;;;;;;5.82;4.85;;;8.90;51.70;;;;;;5062785;28;20040;-83
2022/01/03 11:19:51;;;;;;;6.60;4.32;;;8.90;51.60;;;;;;5063084;28;20115;-83
2022/01/03 11:22:44;;;;;;;4.82;4.10;;;8.90;51.50;;;;;;5065604;28;20060;-83
2022/01/03 11:25:11;;;;;;;6.22;4.30;;;8.90;51.40;;;;;;5062571;28;20032;-81
2022/01/03 11:27:40;;;;;;;5.65;4.18;;;8.90;51.40;;;;;;5062328;28;20368;-83
2022/01/03 11:30:11;;;;;;;5.95;4.03;;;8.90;51.30;;;;;;5064162;28;20047;-83
2022/01/03 11:32:43;;;;;;;6.00;3.78;;;8.90;51.10;;;;;;5047789;28;20044;-83
2022/01/03 11:35:10;;;;;;;6.95;4.57;;;8.90;51.20;;;;;;5063724;28;20040;-83
2022/01/03 11:37:41;;;;;;;5.55;4.40;;;8.90;51.10;;;;;;5063715;28;20036;-84
2022/01/03 11:40:09;;;;;;;7.13;4.30;;;8.90;51.00;;;;;;5063789;28;20044;-84
2022/01/03 11:42:36;;;;;;;7.88;4.35;;;8.90;50.90;;;;;;5062660;28;20032;-84
2022/01/03 11:45:02;;;;;;;6.15;4.40;;;8.90;50.90;;;;;;5063988;28;20041;-82
2022/01/03 11:47:30;;;;;;;6.03;4.18;;;8.90;50.80;;;;;;5061850;28;20111;-80
2022/01/03 11:49:57;;;;;;;5.45;4.10;;;8.80;50.80;;;;;;5063464;28;20076;-83
2022/01/03 11:52:23;;;;;;;5.72;4.50;;;8.90;51.00;;;;;;5063516;28;20175;-80
2022/01/03 11:54:52;;;;;;;5.60;4.28;;;8.90;51.10;;;;;;5064957;28;20032;-80
2022/01/03 12:05:51;;;;;;;10.02;5.03;;;8.90;51.90;;;;;;5068974;28;20127;-80
2022/01/03 12:08:30;;;;;;;7.50;4.63;;;8.90;52.00;;;;;;5068326;28;20117;-81
2022/01/03 12:11:00;;;;;;;8.98;5.15;;;8.90;52.00;;;;;;5067810;28;20028;-80
2022/01/03 12:14:04;;;;;;;8.75;5.43;;;8.80;52.00;;;;;;5066748;28;20024;-79
2022/01/03 12:16:51;;;;;;;9.73;5.55;;;8.90;52.00;;;;;;5026352;28;20120;-79
2022/01/03 12:19:29;;;;;;;8.18;6.05;;;8.80;51.90;;;;;;5014182;28;20377;-80
2022/01/03 12:22:01;;;;;;;9.93;6.22;;;8.80;52.00;;;;;;5010383;28;20447;-83
2022/01/03 12:24:27;;;;;;;7.82;5.80;;;8.80;51.80;;;;;;5020236;28;20049;-84
2022/01/03 12:27:11;;;;;;;7.32;5.68;;;8.80;51.80;;;;;;5028879;28;20052;-83
2022/01/03 12:29:58;;;;;;;8.77;5.82;;;8.80;51.80;;;;;;5026769;28;20060;-82
2022/01/03 12:32:38;;;;;;;10.43;5.70;;;8.80;51.60;;;;;;5027163;28;20053;-83
2022/01/03 12:35:16;;;;;;;12.35;5.70;;;8.80;51.50;;;;;;5025557;28;20033;-82
2022/01/03 12:37:53;;;;;;;8.07;6.00;;;8.80;51.70;;;;;;5026604;28;20026;-83
2022/01/03 12:40:25;;;;;;;9.75;6.20;;;8.80;51.60;;;;;;5025106;28;20075;-84
2022/01/03 12:42:51;;;;;;;9.98;6.65;;;8.80;51.60;;;;;;5029031;28;20043;-84
2022/01/03 12:45:29;;;;;;;9.15;6.05;;;8.80;51.50;;;;;;5017345;28;20052;-83
2022/01/03 12:51:04;;;;;;;9.98;6.00;;;8.80;51.50;;;;;;5033496;28;20271;-83
2022/01/03 12:53:29;;;;;;;10.52;6.40;;;8.80;51.40;;;;;;5049420;28;20104;-83
2022/01/03 12:56:03;;;;;;;10.32;5.90;;;8.80;51.50;;;;;;5065917;28;20119;-88
2022/01/03 12:58:28;;;;;;;8.27;5.95;;;8.80;51.60;;;;;;5064052;28;20038;-83
2022/01/03 13:00:59;;;;;;;10.70;5.75;;;8.80;51.30;;;;;;5065452;28;20036;-84
2022/01/03 13:03:28;;;;;;;9.45;6.07;;;8.80;51.40;;;;;;5055050;28;20095;-84
2022/01/03 13:06:18;;;;;;;9.82;5.57;;;8.80;51.50;;;;;;5086397;28;20461;-83
2022/01/03 13:09:03;;;;;;;7.53;5.55;;;8.70;51.70;;;;;;5076767;28;20036;-82
2022/01/03 13:11:35;;;;;;;7.68;5.60;;;8.70;51.90;;;;;;5079056;28;20062;-84
2022/01/03 13:14:08;;;;;;;9.65;6.35;;;8.70;51.90;;;;;;5066783;28;20037;-87
2022/01/03 13:16:47;;;;;;;9.27;6.38;;;8.80;52.00;;;;;;5071946;28;20032;-87
2022/01/03 13:19:44;;;;;;;7.60;5.68;;;8.80;52.10;;;;;;5071381;28;20384;-85
2022/01/03 13:22:12;;;;;;;8.00;5.22;;;8.70;52.00;;;;;;5023661;28;20094;-84
2022/01/03 13:24:45;;;;;;;7.70;5.45;;;8.70;51.90;;;;;;5072495;28;20047;-85
2022/01/03 13:27:11;;;;;;;8.82;5.88;;;8.70;51.90;;;;;;5051704;28;20040;-85
2022/01/03 13:29:44;;;;;;;10.63;5.90;;;8.80;52.00;;;;;;5062768;28;20367;-88
2022/01/03 13:32:15;;;;;;;8.30;5.82;;;8.70;51.80;;;;;;5065516;28;20403;-87
2022/01/03 13:34:41;;;;;;;9.85;6.20;;;8.70;51.90;;;;;;5055482;28;20031;-87
2022/01/03 13:37:08;;;;;;;9.63;6.03;;;8.70;51.80;;;;;;5048674;28;20033;-90